Time;durP1;ratioP1;P1;durP2;ratioP2;P2;SDS_P1;SDS_P2;PMS_P1;PMS_P2;Temp;Humidity;BMP_temperature;BMP_pressure;BME280_temperature;BME280_humidity;BME280_pressure;Samples;Min_cycle;Max_cycle;Signal;HPM_P1;HPM_P2
2021/01/17 00:01:03;;;;;;;49.27;36.83;;;3.80;99.90;;;4.03;85.56;101387.38;4805384;29;20046;-71
2021/01/17 00:03:31;;;;;;;49.60;36.88;;;3.90;99.90;;;4.05;85.39;101376.94;4805294;29;20039;-70
2021/01/17 00:05:59;;;;;;;46.03;33.83;;;4.00;99.90;;;4.08;85.21;101372.72;4805273;29;20123;-75
2021/01/17 00:08:26;;;;;;;47.93;36.13;;;4.00;99.90;;;4.14;84.64;101378.09;4805262;29;20113;-70
2021/01/17 00:10:54;;;;;;;50.07;35.80;;;4.00;99.90;;;3.93;85.02;101372.22;4805092;29;20067;-72
2021/01/17 00:13:23;;;;;;;47.83;35.17;;;4.10;99.90;;;4.15;84.75;101385.13;4805158;29;20387;-71
2021/01/17 00:15:50;;;;;;;45.47;34.23;;;4.00;99.90;;;4.22;84.55;101386.19;4805174;29;20146;-71
2021/01/17 00:18:18;;;;;;;48.00;35.73;;;4.10;99.90;;;4.28;83.95;101382.00;4805292;29;20054;-72
2021/01/17 00:21:06;;;;;;;45.87;34.20;;;4.10;99.90;;;4.34;83.65;101384.81;4805113;29;20047;-72
2021/01/17 00:23:36;;;;;;;45.23;34.40;;;4.20;99.90;;;4.39;83.34;101385.81;4788859;29;20128;-71
2021/01/17 00:26:03;;;;;;;47.97;35.27;;;4.30;99.90;;;4.41;83.78;101378.03;4805216;29;20063;-72
2021/01/17 00:28:31;;;;;;;46.00;35.17;;;4.30;99.90;;;4.45;83.14;101380.75;4804974;29;20057;-71
2021/01/17 00:30:58;;;;;;;45.60;34.13;;;4.30;99.90;;;4.50;83.45;101379.16;4788707;29;20580;-72
2021/01/17 00:33:26;;;;;;;44.57;34.00;;;4.40;99.90;;;4.56;83.31;101379.34;4805376;29;20103;-70
2021/01/17 00:35:54;;;;;;;47.03;35.23;;;4.40;99.90;;;4.57;82.59;101370.63;4804951;29;20135;-70
2021/01/17 00:38:23;;;;;;;51.67;35.90;;;4.50;99.90;;;4.65;83.07;101372.56;4788726;29;20184;-70
2021/01/17 00:40:50;;;;;;;47.03;36.67;;;4.50;99.90;;;4.70;82.96;101365.72;4804944;29;20051;-71
2021/01/17 00:43:18;;;;;;;55.20;38.17;;;4.50;99.90;;;4.66;82.59;101356.91;4804911;29;20058;-71
2021/01/17 00:45:45;;;;;;;51.07;37.53;;;4.50;99.90;;;4.71;82.57;101367.47;4803662;29;20063;-70
2021/01/17 00:48:13;;;;;;;53.20;37.83;;;4.50;99.90;;;4.72;82.90;101364.94;4788738;29;20059;-70
2021/01/17 00:50:41;;;;;;;55.83;40.00;;;4.50;99.90;;;4.69;82.81;101361.31;4788560;29;20432;-71
2021/01/17 00:53:08;;;;;;;54.80;38.47;;;4.50;99.90;;;4.67;82.74;101350.81;4805703;29;20051;-70
2021/01/17 00:55:42;;;;;;;54.13;37.40;;;4.50;99.90;;;4.65;83.21;101352.50;4807122;29;20670;-71
2021/01/17 00:58:20;;;;;;;55.17;39.60;;;4.50;99.90;;;4.64;83.27;101352.47;4792120;29;20055;-71
2021/01/17 01:00:49;;;;;;;53.80;40.83;;;4.50;99.90;;;4.71;82.94;101354.38;4791804;29;20051;-71
2021/01/17 01:03:23;;;;;;;53.97;39.37;;;4.50;99.90;;;4.75;83.07;101348.38;4807139;29;20381;-71
2021/01/17 01:05:50;;;;;;;56.17;38.40;;;4.50;99.90;;;4.73;83.13;101350.06;4791573;29;20090;-71
2021/01/17 01:08:18;;;;;;;54.13;39.17;;;4.60;99.90;;;4.35;82.68;101274.00;4806878;29;20062;-71
2021/01/17 01:10:46;;;;;;;53.77;38.17;;;4.60;99.90;;;4.81;83.00;101344.22;4808127;29;20466;-71
2021/01/17 01:13:14;;;;;;;53.17;38.73;;;4.60;99.90;;;4.77;82.87;101347.59;4807974;29;20149;-71
2021/01/17 01:15:41;;;;;;;54.70;38.10;;;4.70;99.90;;;4.81;82.59;101338.97;4808038;29;20088;-71
2021/01/17 01:18:09;;;;;;;56.10;40.27;;;4.70;99.90;;;4.86;82.83;101347.81;4806719;29;20506;-71
2021/01/17 01:20:37;;;;;;;55.67;38.83;;;4.70;99.90;;;4.87;82.31;101339.13;4807775;29;20125;-71
2021/01/17 01:23:05;;;;;;;53.77;38.53;;;4.70;99.90;;;4.78;82.29;101306.56;4807844;29;20092;-71
2021/01/17 01:25:32;;;;;;;52.40;37.97;;;4.70;99.90;;;4.92;82.19;101347.09;4791667;29;20493;-71
2021/01/17 01:28:01;;;;;;;51.00;37.63;;;4.80;99.90;;;4.92;82.18;101347.09;4807816;29;20089;-71
2021/01/17 01:30:28;;;;;;;53.20;38.33;;;4.80;99.90;;;4.91;82.72;101346.22;4807628;29;20111;-70
2021/01/17 01:32:55;;;;;;;51.00;37.57;;;4.70;99.90;;;4.92;82.36;101349.72;4807722;29;20077;-72
2021/01/17 01:35:23;;;;;;;54.17;38.10;;;4.70;99.90;;;4.94;82.55;101341.03;4807617;29;20085;-72
2021/01/17 01:37:53;;;;;;;55.97;38.80;;;4.80;99.90;;;4.83;82.71;101352.09;4807808;29;20116;-71
2021/01/17 01:40:20;;;;;;;53.73;37.93;;;4.70;99.90;;;4.95;82.77;101344.56;4807400;29;20312;-71
2021/01/17 01:42:47;;;;;;;54.20;39.83;;;4.80;99.90;;;4.94;82.62;101345.41;4807660;29;20133;-71
2021/01/17 01:45:16;;;;;;;56.07;39.97;;;4.80;99.90;;;4.99;82.25;101354.28;4807516;29;20073;-72
2021/01/17 01:47:44;;;;;;;54.37;38.37;;;4.80;99.90;;;5.05;82.54;101346.56;4807406;29;20107;-72
2021/01/17 01:50:12;;;;;;;59.60;41.33;;;4.90;99.90;;;5.06;82.72;101345.72;4791310;29;20153;-71
2021/01/17 01:52:40;;;;;;;57.23;41.20;;;4.90;99.90;;;5.05;82.63;101343.97;4807404;29;20102;-72
2021/01/17 01:55:09;;;;;;;57.43;41.00;;;4.90;99.90;;;5.13;82.33;101342.41;4807410;29;20129;-71
2021/01/17 01:57:36;;;;;;;56.87;41.27;;;4.90;99.90;;;5.09;82.48;101345.81;4807316;29;20115;-71
2021/01/17 02:00:06;;;;;;;58.67;42.13;;;4.90;99.90;;;5.13;82.77;101345.91;4807339;29;20054;-71
2021/01/17 02:02:45;;;;;;;57.17;40.17;;;4.90;99.90;;;5.16;82.39;101346.00;4807228;29;20086;-71
2021/01/17 02:05:13;;;;;;;54.80;39.53;;;5.00;99.90;;;5.20;82.40;101345.22;4806443;29;20575;-70
2021/01/17 02:08:16;;;;;;;55.30;40.43;;;5.00;99.90;;;5.28;82.67;101340.16;4806012;29;20580;-71
2021/01/17 02:10:45;;;;;;;56.73;38.53;;;5.10;99.90;;;5.13;81.99;101324.06;4790733;29;20057;-70
2021/01/17 02:13:19;;;;;;;54.47;39.93;;;5.10;99.90;;;5.27;82.35;101348.88;4807140;29;20080;-72
2021/01/17 02:15:49;;;;;;;51.50;37.83;;;5.10;99.90;;;5.27;82.42;101344.50;4807059;29;20108;-71
2021/01/17 02:18:19;;;;;;;52.88;37.80;;;5.10;99.90;;;5.25;82.51;101338.34;4806977;29;20047;-71
2021/01/17 02:20:50;;;;;;;46.70;36.08;;;5.10;99.90;;;5.22;82.55;101355.75;4807081;29;20055;-71
2021/01/17 02:23:25;;;;;;;49.87;37.07;;;5.10;99.90;;;5.34;82.46;101335.06;4806876;29;20051;-72
2021/01/17 02:25:53;;;;;;;49.13;35.47;;;5.20;99.90;;;5.40;82.16;101337.84;4807004;29;20088;-72
2021/01/17 02:28:21;;;;;;;49.13;35.40;;;5.20;99.90;;;5.45;82.09;101338.84;4805536;29;20084;-71
2021/01/17 02:30:52;;;;;;;46.63;35.87;;;5.30;99.90;;;5.49;82.17;101330.19;4806745;29;20073;-72
2021/01/17 02:33:23;;;;;;;44.55;34.08;;;5.30;99.90;;;5.52;82.13;101332.88;4805485;29;20058;-71
2021/01/17 02:35:57;;;;;;;45.93;33.57;;;5.40;99.90;;;5.57;81.83;101333.88;4806661;29;20059;-70
2021/01/17 02:38:42;;;;;;;48.17;34.97;;;5.40;99.90;;;5.63;81.79;101331.41;4806610;29;20055;-72
2021/01/17 02:41:21;;;;;;;44.53;33.87;;;5.40;99.90;;;5.62;81.90;101319.09;4806786;29;20059;-71
2021/01/17 02:43:49;;;;;;;46.30;33.97;;;5.50;99.90;;;5.70;81.92;101341.16;4806539;29;20047;-71
2021/01/17 02:46:16;;;;;;;44.47;31.73;;;5.50;99.90;;;5.65;81.76;101319.19;4806394;29;20055;-71
2021/01/17 02:48:44;;;;;;;43.40;32.83;;;5.60;99.90;;;5.79;81.94;101328.25;4806796;29;20130;-72
2021/01/17 02:51:12;;;;;;;42.40;32.67;;;5.60;99.90;;;5.82;81.85;101328.31;4805351;29;20162;-72
2021/01/17 02:53:44;;;;;;;42.33;28.97;;;5.70;99.90;;;5.88;81.97;101333.75;4806695;29;20047;-72
2021/01/17 02:56:18;;;;;;;40.13;30.63;;;5.70;99.90;;;5.92;82.11;101335.56;4806394;29;20050;-72
2021/01/17 02:58:50;;;;;;;40.87;29.90;;;5.70;99.90;;;5.75;83.04;101331.66;4806139;29;20072;-73
2021/01/17 03:01:21;;;;;;;42.87;25.10;;;5.60;99.90;;;5.72;84.50;101330.69;4806627;29;20429;-72
2021/01/17 03:03:49;;;;;;;40.80;21.73;;;5.60;99.90;;;5.89;86.59;101327.63;4806473;29;20129;-71
2021/01/17 03:06:17;;;;;;;41.77;16.43;;;5.70;99.90;;;5.48;89.14;101215.59;4806165;29;20416;-71
2021/01/17 03:08:45;;;;;;;45.50;11.37;;;5.90;99.90;;;6.33;91.21;101331.16;4804934;29;20062;-72
2021/01/17 03:11:14;;;;;;;50.83;11.60;;;6.10;99.90;;;6.57;92.01;101329.03;4805975;29;20055;-72
2021/01/17 03:13:42;;;;;;;47.87;10.87;;;6.40;99.90;;;6.68;92.35;101337.13;4806050;29;20046;-71
2021/01/17 03:16:11;;;;;;;42.53;9.67;;;6.50;99.90;;;6.84;92.31;101331.28;4805047;29;20566;-71
2021/01/17 03:18:38;;;;;;;43.00;10.13;;;6.70;99.90;;;6.91;92.13;101328.78;4805860;29;20055;-72
2021/01/17 03:21:06;;;;;;;46.67;10.03;;;6.80;99.90;;;7.07;91.48;101332.56;4806176;29;20059;-72
2021/01/17 03:23:34;;;;;;;52.03;10.87;;;6.90;99.90;;;7.08;90.97;101322.06;4805786;29;20501;-72
2021/01/17 03:26:01;;;;;;;50.93;10.50;;;7.00;99.90;;;7.23;90.82;101332.84;4805697;29;20124;-72
2021/01/17 03:28:30;;;;;;;47.00;10.47;;;7.10;99.90;;;7.27;90.49;101336.41;4804620;29;20090;-72
2021/01/17 03:30:57;;;;;;;44.87;10.57;;;7.20;99.90;;;7.23;90.33;101334.59;4805590;29;20078;-72
2021/01/17 03:33:24;;;;;;;47.97;9.27;;;7.20;99.90;;;7.22;90.08;101328.44;4805664;29;20058;-72
2021/01/17 03:35:52;;;;;;;42.50;10.27;;;7.20;99.90;;;7.24;90.30;101336.34;4805647;29;20571;-72
2021/01/17 03:38:19;;;;;;;44.00;10.60;;;7.10;99.90;;;7.26;89.90;101339.88;4805413;29;20096;-72
2021/01/17 03:40:46;;;;;;;40.63;9.93;;;7.10;99.90;;;7.35;89.48;101344.44;4805751;29;20082;-73
2021/01/17 03:43:14;;;;;;;49.90;10.77;;;7.20;99.90;;;7.21;89.37;101347.72;4805504;29;20043;-73
2021/01/17 03:45:42;;;;;;;37.20;9.50;;;7.10;99.90;;;7.38;88.86;101352.34;4805584;29;20059;-72
2021/01/17 03:48:10;;;;;;;53.47;11.87;;;7.20;99.90;;;7.39;88.14;101351.50;4805477;29;20054;-72
2021/01/17 03:50:37;;;;;;;49.90;11.00;;;7.30;99.90;;;7.44;88.38;101360.34;4805303;29;20058;-71
2021/01/17 03:53:05;;;;;;;44.10;9.67;;;7.30;99.90;;;7.53;88.39;101355.25;4805538;29;20107;-71
2021/01/17 03:55:32;;;;;;;40.33;10.37;;;7.40;99.90;;;7.46;88.51;101353.38;4805292;29;20137;-72
2021/01/17 03:57:59;;;;;;;44.37;10.27;;;7.40;99.90;;;7.45;88.32;101352.50;4789033;29;20054;-71
2021/01/17 04:00:27;;;;;;;40.90;9.20;;;7.40;99.90;;;7.55;88.22;101353.53;4805242;29;20072;-72
2021/01/17 04:02:57;;;;;;;44.60;9.35;;;7.40;99.90;;;7.64;87.67;101349.31;4803914;29;20051;-72
2021/01/17 04:05:25;;;;;;;50.53;10.43;;;7.50;99.90;;;7.56;87.46;101340.41;4803644;29;20062;-71
2021/01/17 04:07:53;;;;;;;44.20;9.88;;;7.50;99.90;;;7.58;87.74;101349.19;4789246;29;20460;-72
2021/01/17 04:10:21;;;;;;;44.37;10.07;;;7.50;99.90;;;7.67;87.19;101357.22;4805179;29;20403;-72
2021/01/17 04:12:48;;;;;;;50.50;10.33;;;7.50;99.90;;;7.69;87.12;101352.88;4805254;29;20061;-72
2021/01/17 04:15:16;;;;;;;44.10;10.17;;;7.50;99.90;;;7.66;86.89;101360.75;4805145;29;20497;-72
2021/01/17 04:17:47;;;;;;;46.57;9.40;;;7.50;99.90;;;7.43;86.41;101317.38;4804972;29;20080;-71
2021/01/17 04:20:16;;;;;;;44.60;10.53;;;7.50;99.90;;;7.51;86.93;101349.09;4805083;29;20051;-72
2021/01/17 04:22:43;;;;;;;47.27;9.90;;;7.50;99.90;;;7.67;86.64;101353.69;4805095;29;20071;-72
2021/01/17 04:25:12;;;;;;;50.73;11.07;;;7.50;99.90;;;7.60;85.90;101358.00;4804972;29;20055;-71
2021/01/17 04:27:39;;;;;;;44.00;10.37;;;7.50;99.90;;;7.61;86.09;101353.59;4803457;29;20079;-72
2021/01/17 04:30:12;;;;;;;50.42;10.25;;;7.50;99.90;;;7.64;86.13;101358.94;4805225;29;20078;-71
2021/01/17 04:32:40;;;;;;;39.07;9.90;;;7.50;99.90;;;7.63;85.73;101367.69;4803934;29;20067;-71
2021/01/17 04:35:13;;;;;;;51.70;10.90;;;7.50;99.90;;;7.59;86.05;101363.25;4805066;29;20057;-72
2021/01/17 04:37:41;;;;;;;51.07;10.17;;;7.50;99.90;;;7.62;85.87;101369.44;4804916;29;20055;-72
2021/01/17 04:40:10;;;;;;;41.23;9.80;;;7.50;99.90;;;7.56;85.89;101345.66;4804906;29;20051;-71
2021/01/17 04:42:40;;;;;;;46.23;8.77;;;7.60;99.90;;;7.42;85.75;101326.13;4788633;29;20050;-72
2021/01/17 04:45:10;;;;;;;;;;;7.60;99.90;;;7.78;85.97;101378.47;4805244;29;20459;-71
2021/01/17 04:47:40;;;;;;;46.67;10.13;;;7.60;99.90;;;7.88;85.65;101381.25;4804809;29;19929;-71
2021/01/17 04:50:09;;;;;;;46.47;11.07;;;7.70;99.90;;;7.79;85.40;101367.94;4804978;29;20057;-71
2021/01/17 04:52:42;;;;;;;49.03;11.43;;;7.70;99.90;;;7.59;85.06;101306.22;4804747;29;20126;-72
2021/01/17 04:55:11;;;;;;;43.65;10.43;;;7.80;99.90;;;8.08;84.89;101373.63;4788453;29;20174;-72
2021/01/17 04:57:51;;;;;;;37.40;10.23;;;7.90;99.90;;;8.01;84.82;101380.53;4804602;29;20066;-72
2021/01/17 05:00:25;;;;;;;39.67;10.13;;;7.90;99.90;;;7.79;85.30;101362.69;4804855;29;20459;-72
2021/01/17 05:03:18;;;;;;;43.50;9.35;;;7.80;99.90;;;7.50;84.84;101302.56;4804987;29;20062;-71
2021/01/17 05:06:06;;;;;;;41.10;9.67;;;7.80;99.90;;;7.84;85.20;101379.41;4804602;29;20063;-71
2021/01/17 05:08:35;;;;;;;46.63;10.60;;;7.70;99.90;;;7.97;84.89;101377.88;4788628;29;20058;-72
2021/01/17 05:11:04;;;;;;;47.93;9.50;;;7.80;99.90;;;7.86;85.50;101382.97;4804631;29;20427;-72
2021/01/17 05:13:38;;;;;;;44.80;9.30;;;7.70;99.90;;;7.88;84.86;101375.97;4804681;29;20463;-72
2021/01/17 05:16:09;;;;;;;52.07;11.03;;;7.80;99.90;;;7.93;85.09;101376.94;4804590;29;20299;-71
2021/01/17 05:18:37;;;;;;;49.13;11.68;;;7.70;99.90;;;7.94;84.77;101381.34;4804425;29;20051;-71
2021/01/17 05:21:05;;;;;;;46.13;10.65;;;7.90;99.90;;;7.98;85.12;101393.69;4804539;29;20063;-71
2021/01/17 05:23:34;;;;;;;61.20;10.20;;;7.80;99.90;;;8.01;84.88;101395.50;4804483;29;20054;-72
2021/01/17 05:26:05;;;;;;;42.72;9.32;;;7.90;99.90;;;7.92;85.01;101390.97;4804507;29;20058;-71
2021/01/17 05:28:33;;;;;;;52.05;11.13;;;7.80;99.90;;;8.06;84.51;101394.69;4803240;29;20509;-71
2021/01/17 05:31:01;;;;;;;50.38;10.07;;;7.90;99.90;;;8.06;84.56;101396.41;4804696;29;20443;-71
2021/01/17 05:33:31;;;;;;;46.55;9.05;;;7.90;99.90;;;7.86;85.26;101403.13;4804613;29;20051;-71
2021/01/17 05:36:00;;;;;;;45.42;11.15;;;7.80;99.90;;;7.83;85.53;101392.56;4804577;29;20092;-71
2021/01/17 05:38:28;;;;;;;43.20;10.45;;;7.80;99.90;;;7.89;85.40;101403.19;4804353;29;20051;-72
2021/01/17 05:40:56;;;;;;;40.28;9.80;;;7.70;99.90;;;7.92;84.79;101393.59;4807322;29;20080;-71
2021/01/17 05:43:24;;;;;;;49.40;10.43;;;7.80;99.90;;;7.96;84.58;101411.22;4807496;29;20051;-72
2021/01/17 05:45:51;;;;;;;54.17;11.43;;;7.90;99.90;;;7.99;85.31;101413.00;4807558;29;20055;-71
2021/01/17 05:48:18;;;;;;;43.43;9.83;;;7.80;99.90;;;8.03;84.81;101412.19;4791333;29;20059;-72
2021/01/17 05:50:46;;;;;;;53.45;9.93;;;7.90;99.90;;;7.86;84.56;101392.59;4807539;29;20058;-71
2021/01/17 05:53:14;;;;;;;44.33;10.43;;;7.90;99.90;;;7.91;85.29;101406.75;4807522;29;20047;-72
2021/01/17 05:55:43;;;;;;;43.35;9.57;;;7.80;99.90;;;7.77;85.71;101398.63;4807337;29;20494;-72
2021/01/17 05:58:23;;;;;;;;;;;7.70;99.90;;;7.90;85.99;101416.38;4808093;29;20062;-71
2021/01/17 06:00:52;;;;;;;41.92;9.77;;;7.70;99.90;;;8.02;85.47;101420.94;4807400;29;20345;-73
2021/01/17 06:03:22;;;;;;;46.15;10.50;;;7.80;99.90;;;7.95;85.86;101424.38;4807482;29;20086;-71
2021/01/17 06:05:52;;;;;;;50.72;11.95;;;7.80;99.90;;;7.98;85.51;101417.38;4807486;29;20066;-71
2021/01/17 06:08:20;;;;;;;49.33;9.97;;;7.80;99.90;;;7.93;85.24;101418.19;4791168;29;20059;-72
2021/01/17 06:10:48;;;;;;;43.50;9.75;;;7.80;99.90;;;7.97;85.64;101420.91;4807376;29;20051;-72
2021/01/17 06:13:24;;;;;;;47.43;10.50;;;7.80;99.90;;;7.94;85.52;101426.09;4807454;29;20051;-71
2021/01/17 06:15:53;;;;;;;57.60;11.05;;;7.70;99.90;;;7.75;85.88;101395.09;4806105;29;20051;-71
2021/01/17 06:18:22;;;;;;;53.58;10.60;;;7.80;99.90;;;7.91;85.91;101423.44;4807340;29;20046;-71
2021/01/17 06:20:57;;;;;;;51.17;11.35;;;7.80;99.90;;;7.90;85.79;101431.28;4806901;29;20058;-72
2021/01/17 06:23:25;;;;;;;46.95;11.48;;;7.80;99.90;;;7.95;85.81;101420.00;4806963;29;20046;-72
2021/01/17 06:26:05;;;;;;;57.05;10.95;;;7.90;99.90;;;7.97;85.12;101423.53;4806942;29;20057;-71
2021/01/17 06:28:42;;;;;;;48.83;10.50;;;7.90;99.90;;;7.97;84.91;101438.44;4807059;29;20059;-72
2021/01/17 06:31:10;;;;;;;45.50;10.65;;;7.90;99.90;;;7.85;85.69;101443.53;4806729;29;20051;-72
2021/01/17 06:33:39;;;;;;;48.53;10.43;;;7.70;99.90;;;7.89;85.83;101451.50;4806599;29;20047;-71
2021/01/17 06:36:13;;;;;;;46.60;10.23;;;7.70;99.90;;;7.77;85.67;101439.88;4806912;29;20062;-72
2021/01/17 06:38:41;;;;;;;57.17;10.98;;;7.70;99.90;;;7.85;86.02;101444.41;4805425;29;20059;-72
2021/01/17 06:41:10;;;;;;;39.50;10.10;;;7.70;99.90;;;8.02;85.59;101458.72;4806577;29;20200;-72
2021/01/17 06:43:42;;;;;;;43.60;10.70;;;7.80;99.90;;;7.29;85.38;101356.63;4806478;29;20092;-71
2021/01/17 06:46:11;;;;;;;50.70;9.98;;;7.70;99.90;;;7.81;86.16;101453.13;4806521;29;20482;-71
2021/01/17 06:48:39;;;;;;;48.92;9.75;;;7.70;99.90;;;7.78;86.05;101431.13;4806464;29;20062;-71
2021/01/17 06:51:20;;;;;;;44.47;10.27;;;7.70;99.90;;;7.91;85.62;101460.31;4806206;29;20475;-72
2021/01/17 06:53:57;;;;;;;46.13;10.43;;;7.70;99.90;;;7.90;85.42;101466.44;4806378;29;20062;-72
2021/01/17 06:56:24;;;;;;;39.22;10.02;;;7.70;99.90;;;8.05;85.29;101477.19;4806261;29;20054;-70
2021/01/17 06:58:53;;;;;;;38.43;9.30;;;7.90;99.90;;;7.95;83.44;101477.03;4806224;29;20050;-73
2021/01/17 07:01:28;;;;;;;45.45;10.15;;;7.90;99.90;;;7.87;83.58;101476.94;4806200;29;20051;-71
2021/01/17 07:04:17;;;;;;;43.43;10.33;;;7.80;99.90;;;8.02;83.14;101471.91;4804891;29;20062;-73
2021/01/17 07:07:11;;;;;;;44.42;8.90;;;7.90;99.90;;;7.84;83.61;101463.69;4806367;29;20062;-72
2021/01/17 07:09:49;;;;;;;39.58;8.80;;;7.80;99.90;;;7.95;84.16;101475.31;4806189;29;20046;-72
2021/01/17 07:12:39;;;;;;;37.50;9.90;;;7.80;99.90;;;7.87;84.35;101457.59;4806152;29;20055;-72
2021/01/17 07:15:09;;;;;;;50.88;10.55;;;7.80;99.90;;;7.97;84.35;101489.38;4804652;29;20058;-72
2021/01/17 07:17:38;;;;;;;44.83;10.02;;;7.80;99.90;;;8.04;84.89;101498.25;4806114;29;20055;-73
2021/01/17 07:20:09;;;;;;;41.83;10.17;;;7.90;99.90;;;7.95;84.54;101464.78;4806025;29;20055;-72
2021/01/17 07:22:37;;;;;;;47.92;10.32;;;8.00;99.90;;;8.12;84.63;101502.78;4805954;29;20292;-73
2021/01/17 07:25:08;;;;;;;44.65;9.70;;;8.00;99.90;;;7.89;84.85;101483.09;4805835;29;20051;-73
2021/01/17 07:28:05;;;;;;;46.55;10.55;;;7.90;99.90;;;8.00;85.63;101504.34;4805781;29;20088;-72
2021/01/17 07:30:49;;;;;;;41.90;9.80;;;7.80;99.90;;;7.81;85.25;101484.72;4805930;29;20059;-73
2021/01/17 07:33:23;;;;;;;44.63;9.50;;;7.80;99.90;;;7.91;85.47;101507.72;4805696;29;20516;-73
2021/01/17 07:35:53;;;;;;;42.63;10.90;;;7.80;99.90;;;7.95;85.29;101520.09;4805679;29;20062;-70
2021/01/17 07:38:23;;;;;;;34.27;9.23;;;7.80;99.90;;;7.87;85.31;101521.69;4805411;29;20128;-70
2021/01/17 07:40:55;;;;;;;30.50;8.83;;;7.70;99.90;;;7.77;84.63;101525.03;4805764;29;20050;-70
2021/01/17 07:43:26;;;;;;;32.05;8.55;;;7.60;99.90;;;7.77;84.45;101530.28;4805915;29;20103;-71
2021/01/17 07:45:56;;;;;;;;;;;7.60;99.90;;;7.77;84.23;101537.31;4806019;29;20401;-71
2021/01/17 07:48:25;;;;;;;39.65;8.38;;;7.60;99.90;;;7.84;84.39;101547.09;4805512;29;19925;-72
2021/01/17 07:50:54;;;;;;;34.13;8.83;;;7.70;99.90;;;7.95;83.58;101549.06;4805383;29;20486;-71
2021/01/17 07:53:43;;;;;;;39.57;8.93;;;7.80;99.90;;;7.98;83.34;101545.56;4805397;29;20484;-71
2021/01/17 07:56:14;;;;;;;40.57;9.13;;;7.80;99.90;;;8.01;83.61;101557.03;4805460;29;20412;-72
2021/01/17 07:58:44;;;;;;;31.38;9.35;;;7.80;99.90;;;8.02;83.79;101556.19;4805385;29;20058;-72
2021/01/17 08:01:47;;;;;;;36.90;9.68;;;7.90;99.90;;;8.11;83.48;101564.25;4805168;29;20141;-72
2021/01/17 08:04:28;;;;;;;47.08;9.73;;;7.90;99.90;;;8.10;83.36;101567.75;4805309;29;20047;-72
2021/01/17 08:06:58;;;;;;;39.63;10.13;;;7.90;99.90;;;8.19;83.21;101570.53;4805011;29;20071;-71
2021/01/17 08:09:48;;;;;;;41.97;9.80;;;8.00;99.90;;;8.28;83.68;101582.13;4805033;29;20066;-72
2021/01/17 08:12:50;;;;;;;37.05;10.00;;;8.00;99.90;;;8.19;83.75;101582.81;4805055;29;20086;-72
2021/01/17 08:15:29;;;;;;;43.80;10.07;;;8.00;99.90;;;8.19;83.03;101594.25;4731726;30;20060;-71
2021/01/17 08:17:58;;;;;;;45.78;9.13;;;8.00;99.90;;;8.40;82.78;101593.72;4731584;30;20750;-72
2021/01/17 08:20:32;;;;;;;53.83;10.38;;;8.20;99.90;;;8.22;83.06;101598.69;4771731;29;20071;-72
2021/01/17 08:23:12;;;;;;;49.47;9.50;;;8.10;99.90;;;7.92;83.44;101540.19;4805075;29;20108;-72
2021/01/17 08:25:57;;;;;;;52.00;10.60;;;8.10;99.90;;;8.30;82.96;101615.56;4788724;29;20051;-73
2021/01/17 08:28:40;;;;;;;44.60;10.90;;;8.10;99.90;;;8.20;83.60;101616.22;4804838;29;20111;-73
2021/01/17 08:31:42;;;;;;;36.00;9.05;;;8.00;99.90;;;8.33;83.35;101601.50;4805005;29;20047;-72
2021/01/17 08:34:17;;;;;;;41.03;9.98;;;8.10;99.90;;;8.31;82.64;101609.41;4804868;29;20509;-72
2021/01/17 08:36:46;;;;;;;40.92;9.02;;;8.20;99.90;;;8.09;82.79;101568.59;4804865;29;20509;-72
2021/01/17 08:39:14;;;;;;;40.67;9.32;;;8.20;99.90;;;8.47;82.96;101606.16;4805196;29;20062;-72
2021/01/17 08:41:45;;;;;;;43.92;10.07;;;8.30;99.90;;;8.35;82.81;101610.34;4805010;29;20054;-73
2021/01/17 08:44:15;;;;;;;39.15;8.88;;;8.20;99.90;;;8.19;83.38;101617.97;4804752;29;20050;-70
2021/01/17 08:46:43;;;;;;;46.75;9.63;;;8.10;99.90;;;8.26;82.96;101616.34;4804744;29;20054;-71
2021/01/17 08:49:11;;;;;;;45.03;10.33;;;8.10;99.90;;;8.21;82.83;101610.97;4804637;29;20058;-72
2021/01/17 08:51:41;;;;;;;44.25;9.98;;;8.10;99.90;;;8.38;82.66;101631.50;4804765;29;20409;-72
2021/01/17 08:54:26;;;;;;;38.95;9.57;;;8.20;99.90;;;7.83;82.70;101543.56;4804797;29;20131;-70
2021/01/17 08:56:54;;;;;;;46.00;9.23;;;8.20;99.90;;;8.28;82.85;101629.56;4804727;29;20051;-73
2021/01/17 08:59:38;;;;;;;43.03;9.43;;;8.10;99.90;;;8.50;82.80;101645.75;4804341;29;20086;-69
2021/01/17 09:02:05;;;;;;;42.80;11.18;;;8.30;99.90;;;8.38;82.56;101648.16;4803640;29;20062;-72
2021/01/17 09:04:34;;;;;;;42.78;9.75;;;8.20;99.90;;;8.33;82.95;101651.59;4804647;29;20053;-69
2021/01/17 09:07:02;;;;;;;42.30;9.48;;;8.20;99.90;;;8.54;82.51;101649.31;4804716;29;20066;-69
2021/01/17 09:09:30;;;;;;;36.78;9.90;;;8.30;99.90;;;8.46;82.32;101661.50;4804644;29;20438;-70
2021/01/17 09:12:11;;;;;;;46.50;10.82;;;8.40;99.90;;;8.57;83.21;101665.19;4804572;29;20505;-69
2021/01/17 09:14:39;;;;;;;38.08;9.73;;;8.40;99.90;;;8.50;83.11;101663.31;4807421;29;20061;-70
2021/01/17 09:17:12;;;;;;;41.38;10.73;;;8.40;99.90;;;8.62;83.35;101664.41;4808017;29;20084;-69
2021/01/17 09:19:40;;;;;;;44.42;10.45;;;8.50;99.90;;;8.53;83.20;101668.66;4807839;29;20054;-72
2021/01/17 09:22:09;;;;;;;50.05;10.48;;;8.50;99.90;;;8.71;82.94;101675.09;4807913;29;20572;-69
2021/01/17 09:24:38;;;;;;;48.03;11.05;;;8.50;99.90;;;8.73;82.58;101686.56;4807722;29;20077;-73
2021/01/17 09:27:09;;;;;;;45.08;9.90;;;8.60;99.90;;;8.71;82.63;101680.38;4808112;29;20069;-72
2021/01/17 09:29:39;;;;;;;41.85;9.32;;;8.60;99.90;;;8.50;82.90;101689.66;4806539;29;20054;-77
2021/01/17 09:32:14;;;;;;;34.25;8.88;;;8.50;99.90;;;8.52;81.67;101690.56;4807904;29;20135;-77
2021/01/17 09:34:43;;;;;;;38.65;9.13;;;8.40;99.90;;;8.38;81.58;101678.94;4807626;29;20430;-70
2021/01/17 09:37:14;;;;;;;36.28;8.95;;;8.40;99.90;;;8.60;81.84;101707.41;4807823;29;20484;-72
2021/01/17 09:39:45;;;;;;;;;;;8.50;99.90;;;8.44;82.31;101705.41;4808033;29;20452;-73
2021/01/17 09:42:15;;;;;;;33.20;8.00;;;8.40;99.90;;;8.45;82.91;101712.44;4807623;29;19925;-74
2021/01/17 09:44:51;;;;;;;44.58;9.07;;;8.40;99.90;;;8.07;83.18;101682.75;4806498;29;20399;-67
2021/01/17 09:47:22;;;;;;;36.73;9.30;;;8.20;99.90;;;8.36;83.08;101722.81;4806258;29;20129;-71
2021/01/17 09:49:51;;;;;;;35.35;9.05;;;8.20;99.90;;;8.25;83.19;101724.34;4807769;29;20141;-73
2021/01/17 09:52:21;;;;;;;37.67;8.82;;;8.20;99.90;;;8.39;83.00;101739.59;4791235;29;20107;-73
2021/01/17 09:54:50;;;;;;;39.80;9.38;;;8.20;99.90;;;8.43;83.20;101732.63;4807667;29;20061;-74
2021/01/17 09:57:22;;;;;;;39.85;10.05;;;8.30;99.90;;;8.33;83.93;101743.84;4806261;29;20063;-78
2021/01/17 09:59:52;;;;;;;44.27;9.63;;;8.20;99.90;;;8.19;84.47;101726.00;4807346;29;20054;-72
2021/01/17 10:02:22;;;;;;;45.85;10.02;;;8.20;99.90;;;8.35;84.45;101747.41;4806218;29;20155;-71
2021/01/17 10:04:50;;;;;;;40.38;10.50;;;8.20;99.90;;;8.12;83.44;101695.13;4807321;29;20047;-73
2021/01/17 10:07:21;;;;;;;33.10;8.25;;;8.30;99.90;;;8.31;83.27;101746.47;4807000;29;20055;-71
2021/01/17 10:09:54;;;;;;;37.88;8.35;;;8.30;99.90;;;8.25;82.39;101769.16;4790929;29;20194;-72
2021/01/17 10:12:24;;;;;;;34.42;9.15;;;8.20;99.90;;;8.29;83.19;101749.91;4805836;29;20132;-72
2021/01/17 10:14:52;;;;;;;35.50;8.55;;;8.20;99.90;;;8.23;83.47;101739.25;4807083;29;20089;-72
2021/01/17 10:17:21;;;;;;;34.30;8.85;;;8.20;99.90;;;8.60;83.37;101763.69;4807038;29;20059;-72
2021/01/17 10:19:48;;;;;;;48.33;10.45;;;8.40;99.90;;;8.70;83.39;101762.09;4806895;29;20051;-71
2021/01/17 10:22:18;;;;;;;37.38;8.90;;;8.60;99.90;;;8.66;82.97;101744.44;4806929;29;20080;-74
2021/01/17 10:24:46;;;;;;;42.13;9.68;;;8.70;99.90;;;8.80;82.85;101769.31;4806568;29;20084;-72
2021/01/17 10:27:18;;;;;;;36.83;9.52;;;8.70;99.90;;;8.86;83.00;101774.72;4806869;29;20065;-75
2021/01/17 10:29:45;;;;;;;41.17;9.90;;;8.70;99.90;;;9.01;82.92;101782.88;4806797;29;20051;-78
2021/01/17 10:32:15;;;;;;;39.22;8.95;;;8.80;99.90;;;9.00;82.58;101783.75;4805801;29;20089;-74